Time;durP1;ratioP1;P1;durP2;ratioP2;P2;SDS_P1;SDS_P2;PMS_P1;PMS_P2;Temp;Humidity;BMP_temperature;BMP_pressure;BME280_temperature;BME280_humidity;BME280_pressure;Samples;Min_cycle;Max_cycle;Signal;HPM_P1;HPM_P2
2022/06/23 00:01:17;;;;;;;4.93;3.45;;;;;;;;;;5002724;28;20117;-72
2022/06/23 00:03:45;;;;;;;4.22;3.20;;;;;;;;;;5011181;28;20123;-71
2022/06/23 00:06:22;;;;;;;4.85;3.08;;;;;;;;;;5012653;28;20080;-71
2022/06/23 00:08:48;;;;;;;7.20;4.40;;;;;;;;;;5003234;28;20486;-71
2022/06/23 00:11:19;;;;;;;4.50;3.45;;;;;;;;;;5009604;28;20149;-71
2022/06/23 00:13:45;;;;;;;5.47;3.40;;;;;;;;;;5011509;28;20559;-71
2022/06/23 00:16:22;;;;;;;6.85;3.60;;;14.90;99.90;;;;;;5012001;28;20072;-71
2022/06/23 00:18:48;;;;;;;4.80;3.53;;;;;;;;;;5012513;28;20018;-71
2022/06/23 00:21:20;;;;;;;3.58;3.28;;;;;;;;;;5010365;28;20358;-71
2022/06/23 00:23:47;;;;;;;4.50;3.50;;;;;;;;;;5012382;28;20037;-71
2022/06/23 00:26:18;;;;;;;4.15;3.75;;;14.60;99.90;;;;;;5008676;28;20545;-71
2022/06/23 00:28:46;;;;;;;4.68;3.50;;;;;;;;;;5012206;28;20042;-71
2022/06/23 00:31:28;;;;;;;5.03;4.22;;;;;;;;;;5008176;28;20393;-71
2022/06/23 00:33:54;;;;;;;5.05;3.50;;;;;;;;;;5012302;28;20042;-71
2022/06/23 00:36:23;;;;;;;6.00;3.85;;;;;;;;;;4992886;28;20393;-71
2022/06/23 00:38:49;;;;;;;4.18;3.72;;;;;;;;;;5012365;28;20029;-71
2022/06/23 00:41:21;;;;;;;4.80;4.07;;;;;;;;;;5009750;28;20034;-71
2022/06/23 00:43:50;;;;;;;6.00;3.92;;;14.80;99.90;;;;;;5011821;28;20372;-70
2022/06/23 00:46:22;;;;;;;7.22;4.30;;;;;;;;;;5002517;28;20049;-71
2022/06/23 00:48:53;;;;;;;5.65;3.70;;;14.50;99.90;;;;;;5011430;28;20462;-71
2022/06/23 00:51:36;;;;;;;4.65;3.67;;;14.50;99.90;;;;;;5003582;28;20030;-71
2022/06/23 00:54:16;;;;;;;4.30;3.75;;;14.70;99.90;;;;;;5011968;28;20038;-71
2022/06/23 00:56:54;;;;;;;6.82;4.28;;;14.40;99.90;;;;;;5000837;28;20113;-70
2022/06/23 00:59:20;;;;;;;4.38;3.65;;;;;;;;;;5010048;28;20037;-70
2022/06/23 01:02:05;;;;;;;4.60;4.20;;;14.40;99.90;;;;;;4998615;28;20084;-71
2022/06/23 01:04:40;;;;;;;4.63;4.18;;;;;;;;;;5011745;28;20053;-70
2022/06/23 01:07:21;;;;;;;5.28;4.15;;;;;;;;;;5009518;28;20025;-71
2022/06/23 01:10:05;;;;;;;5.15;4.55;;;14.20;99.90;;;;;;5005082;28;20049;-71
2022/06/23 01:12:35;;;;;;;5.78;3.75;;;;;;;;;;5011373;28;20504;-71
2022/06/23 01:15:17;;;;;;;5.35;4.65;;;;;;;;;;5011320;28;20065;-71
2022/06/23 01:17:52;;;;;;;5.00;4.20;;;;;;;;;;5010537;28;20041;-71
2022/06/23 01:20:39;;;;;;;6.85;4.40;;;;;;;;;;5009412;28;20037;-71
2022/06/23 01:23:11;;;;;;;5.43;4.65;;;;;;;;;;5009487;28;20033;-71
2022/06/23 01:25:37;;;;;;;6.70;5.10;;;;;;;;;;4994180;28;20415;-71
2022/06/23 01:28:11;;;;;;;5.18;4.68;;;;;;;;;;4993333;28;20080;-71
2022/06/23 01:30:44;;;;;;;6.78;4.25;;;;;;;;;;5010636;28;20030;-71
2022/06/23 01:33:14;;;;;;;5.85;4.53;;;;;;;;;;5010097;28;20461;-71
2022/06/23 01:36:02;;;;;;;5.50;4.50;;;;;;;;;;5008453;28;20057;-71
2022/06/23 01:38:50;;;;;;;7.80;5.30;;;;;;;;;;5011421;28;20065;-71
2022/06/23 01:41:27;;;;;;;6.45;5.30;;;13.80;99.90;;;;;;4996849;28;20041;-71
2022/06/23 01:44:06;;;;;;;8.15;5.53;;;14.10;99.90;;;;;;5010215;28;20034;-71
2022/06/23 01:46:35;;;;;;;7.47;4.80;;;;;;;;;;5010950;28;20022;-71
2022/06/23 01:49:04;;;;;;;5.75;5.15;;;;;;;;;;4993427;28;20112;-71
2022/06/23 01:51:36;;;;;;;5.80;4.93;;;;;;;;;;5002815;28;20049;-71
2022/06/23 01:54:17;;;;;;;7.32;5.38;;;;;;;;;;4988755;28;20466;-71
2022/06/23 01:56:43;;;;;;;9.38;5.97;;;;;;;;;;4998254;28;20037;-71
2022/06/23 01:59:30;;;;;;;6.82;5.30;;;14.00;99.90;;;;;;5011612;28;20084;-71
2022/06/23 02:02:11;;;;;;;6.07;5.22;;;;;;;;;;4999803;28;20058;-71
2022/06/23 02:04:45;;;;;;;6.43;5.75;;;;;;;;;;5012552;28;20046;-71
2022/06/23 02:07:23;;;;;;;6.10;5.50;;;;;;;;;;5013812;28;20034;-71
2022/06/23 02:09:51;;;;;;;6.20;5.22;;;;;;;;;;5012384;28;20045;-71
2022/06/23 02:12:23;;;;;;;6.40;5.45;;;;;;;;;;5014608;28;20362;-71
2022/06/23 02:14:52;;;;;;;7.13;5.65;;;;;;;;;;5014277;28;20030;-71
2022/06/23 02:17:30;;;;;;;7.03;5.93;;;;;;;;;;5011925;28;20025;-71
2022/06/23 02:19:58;;;;;;;6.82;5.90;;;;;;;;;;4983038;28;20373;-71
2022/06/23 02:22:30;;;;;;;9.27;6.43;;;;;;;;;;4997142;28;21000;-72
2022/06/23 02:25:05;;;;;;;10.15;5.32;;;;;;;;;;5013584;28;20075;-71
2022/06/23 02:27:41;;;;;;;10.75;7.40;;;;;;;;;;5014057;28;20045;-71
2022/06/23 02:30:07;;;;;;;9.13;6.90;;;;;;;;;;5012830;28;20092;-71
2022/06/23 02:32:55;;;;;;;8.15;6.43;;;14.00;99.90;;;;;;5014595;28;20143;-71
2022/06/23 02:35:26;;;;;;;12.75;6.72;;;;;;;;;;4995253;28;20114;-71
2022/06/23 02:37:55;;;;;;;8.40;6.97;;;;;;;;;;4986813;28;20385;-71
2022/06/23 02:40:24;;;;;;;7.68;6.88;;;;;;;;;;5013451;28;20153;-71
2022/06/23 02:42:54;;;;;;;8.30;6.97;;;;;;;;;;5014347;28;20057;-71
2022/06/23 02:45:39;;;;;;;7.88;7.00;;;;;;;;;;5011656;28;20054;-71
2022/06/23 02:48:19;;;;;;;11.93;8.00;;;;;;;;;;5003834;28;20378;-71
2022/06/23 02:51:04;;;;;;;8.68;7.72;;;13.70;99.90;;;;;;5014315;28;20030;-71
2022/06/23 02:53:57;;;;;;;8.85;7.35;;;;;;;;;;5010556;28;20064;-71
2022/06/23 02:56:23;;;;;;;9.20;7.82;;;;;;;;;;5014489;28;20034;-71
2022/06/23 02:58:52;;;;;;;10.57;7.22;;;13.80;99.90;;;;;;5010315;28;20116;-71
2022/06/23 03:01:23;;;;;;;12.73;8.70;;;;;;;;;;5014005;28;20092;-71
2022/06/23 03:03:51;;;;;;;;;;;;;;;;;;5014840;28;20124;-71
2022/06/23 03:06:20;;;;;;;8.82;7.20;;;;;;;;;;5024338;28;20006;-71
2022/06/23 03:08:59;;;;;;;13.70;8.55;;;;;;;;;;5013876;28;20113;-71
2022/06/23 03:14:15;;;;;;;10.50;8.10;;;;;;;;;;5013587;28;20064;-71
2022/06/23 03:16:44;;;;;;;12.63;8.60;;;;;;;;;;5010460;28;20033;-71
2022/06/23 03:19:21;;;;;;;11.68;7.65;;;13.80;99.90;;;;;;5011203;28;20053;-71
2022/06/23 03:22:16;;;;;;;11.38;8.43;;;13.60;99.90;;;;;;4988630;28;20084;-71
2022/06/23 03:24:48;;;;;;;9.70;7.65;;;;;;;;;;5013248;28;20033;-71
2022/06/23 03:27:20;;;;;;;11.33;7.83;;;;;;;;;;5012474;28;20030;-71
2022/06/23 03:29:50;;;;;;;8.93;7.07;;;;;;;;;;5010400;28;20393;-71
2022/06/23 03:32:21;;;;;;;9.85;8.35;;;;;;;;;;4985987;28;20130;-71
2022/06/23 03:34:49;;;;;;;11.85;8.27;;;;;;;;;;5011386;28;20033;-71
2022/06/23 03:37:23;;;;;;;14.75;8.30;;;;;;;;;;5010681;28;20469;-71
2022/06/23 03:42:45;;;;;;;9.52;8.13;;;;;;;;;;4996950;28;20091;-71
2022/06/23 03:45:20;;;;;;;13.05;8.75;;;;;;;;;;5006536;28;20033;-71
2022/06/23 03:47:52;;;;;;;11.98;7.65;;;;;;;;;;5012743;28;20385;-71
2022/06/23 03:50:25;;;;;;;10.70;8.43;;;13.50;99.90;;;;;;4991790;28;20034;-71
2022/06/23 03:53:12;;;;;;;13.75;8.95;;;;;;;;;;4994520;28;20030;-71
2022/06/23 03:55:38;;;;;;;12.32;8.80;;;;;;;;;;4999102;28;20490;-71
2022/06/23 03:58:14;;;;;;;12.60;8.75;;;;;;;;;;5010149;28;20113;-71
2022/06/23 04:00:46;;;;;;;11.52;9.27;;;;;;;;;;5011049;28;20385;-71
2022/06/23 04:03:23;;;;;;;11.13;8.73;;;;;;;;;;4994958;28;20461;-72
2022/06/23 04:05:55;;;;;;;11.45;8.95;;;;;;;;;;5009989;28;20049;-71
2022/06/23 04:08:25;;;;;;;12.75;9.48;;;;;;;;;;5010559;28;20385;-71
2022/06/23 04:10:54;;;;;;;13.25;9.63;;;13.90;99.90;;;;;;4994964;28;20033;-70
2022/06/23 04:13:28;;;;;;;12.32;9.50;;;;;;;;;;4988992;28;20563;-71
2022/06/23 04:15:55;;;;;;;16.75;9.45;;;;;;;;;;5011364;28;20481;-71
2022/06/23 04:18:25;;;;;;;17.50;10.60;;;13.90;99.90;;;;;;4994576;28;20042;-71
2022/06/23 04:20:59;;;;;;;13.13;10.07;;;;;;;;;;5011169;28;20381;-72
2022/06/23 04:23:25;;;;;;;15.32;9.32;;;;;;;;;;4996026;28;20091;-71
2022/06/23 04:25:59;;;;;;;12.50;9.77;;;;;;;;;;5010891;28;20470;-71
2022/06/23 04:28:55;;;;;;;12.05;9.25;;;13.90;99.90;;;;;;5011320;28;20042;-71
2022/06/23 04:31:35;;;;;;;11.10;9.00;;;;;;;;;;4985429;28;20088;-71
2022/06/23 04:34:02;;;;;;;13.60;8.93;;;;;;;;;;4993499;28;20030;-71
2022/06/23 04:36:33;;;;;;;12.68;9.40;;;;;;;;;;5012440;28;20022;-71
2022/06/23 04:39:02;;;;;;;19.42;9.98;;;;;;;;;;5011373;28;20390;-71
2022/06/23 04:41:28;;;;;;;14.55;9.20;;;;;;;;;;5009315;28;20038;-71
2022/06/23 04:43:59;;;;;;;13.48;9.52;;;;;;;;;;5009323;28;20026;-71
2022/06/23 04:46:28;;;;;;;11.98;9.60;;;;;;;;;;4991300;28;20038;-71
2022/06/23 04:48:58;;;;;;;11.32;9.60;;;14.20;99.90;;;;;;5010167;28;20056;-71
2022/06/23 04:51:26;;;;;;;13.18;9.30;;;14.20;99.90;;;;;;5009451;28;20038;-71
2022/06/23 04:53:52;;;;;;;11.50;8.50;;;;;;;;;;5011162;28;20034;-71
2022/06/23 04:56:24;;;;;;;12.70;8.45;;;;;;;;;;5009499;28;20030;-71
2022/06/23 04:58:55;;;;;;;11.82;8.88;;;;;;;;;;5005251;28;20034;-71
2022/06/23 05:01:23;;;;;;;11.30;7.77;;;;;;;;;;5003839;28;20087;-72
2022/06/23 05:03:56;;;;;;;12.15;8.70;;;;;;;;;;5004931;28;20458;-72
2022/06/23 05:06:22;;;;;;;10.52;7.38;;;;;;;;;;5011437;28;20068;-72
2022/06/23 05:08:50;;;;;;;13.75;9.48;;;14.70;99.90;;;;;;5010365;28;20113;-72
2022/06/23 05:11:22;;;;;;;21.40;13.32;;;;;;;;;;5011719;28;20036;-72
2022/06/23 05:13:51;;;;;;;16.13;10.95;;;15.10;99.90;;;;;;5011071;28;20025;-73
2022/06/23 05:16:27;;;;;;;11.93;9.00;;;;;;;;;;5009933;28;20476;-73
2022/06/23 05:18:56;;;;;;;10.57;7.93;;;15.00;99.90;;;;;;5006904;28;20029;-72
2022/06/23 05:21:46;;;;;;;11.40;8.48;;;15.20;99.90;;;;;;5010952;28;20033;-71
2022/06/23 05:24:15;;;;;;;9.73;6.80;;;;;;;;;;5011439;28;20060;-71
2022/06/23 05:26:43;;;;;;;11.65;8.05;;;;;;;;;;5009914;28;20064;-71
2022/06/23 05:29:25;;;;;;;9.55;7.80;;;;;;;;;;5008923;28;20030;-71
2022/06/23 05:31:56;;;;;;;11.00;7.55;;;15.30;99.90;;;;;;4992454;28;20085;-72
2022/06/23 05:34:27;;;;;;;10.27;7.47;;;15.70;99.90;;;;;;4994326;28;20025;-71
2022/06/23 05:37:14;;;;;;;10.50;7.47;;;15.60;99.90;;;;;;5010658;28;20038;-72
2022/06/23 05:40:14;;;;;;;9.13;7.07;;;15.50;99.90;;;;;;5013833;28;20521;-71
2022/06/23 05:42:46;;;;;;;21.42;15.02;;;;;;;;;;4992380;28;20508;-72
2022/06/23 05:45:16;;;;;;;14.52;9.90;;;;;;;;;;5014382;28;20029;-72
2022/06/23 05:47:42;;;;;;;10.25;7.70;;;15.90;99.90;;;;;;5011258;28;20129;-70
2022/06/23 05:50:13;;;;;;;8.68;7.03;;;;;;;;;;5013973;28;20042;-72
2022/06/23 05:52:42;;;;;;;9.25;7.18;;;;;;;;;;5015456;28;20041;-71
2022/06/23 05:55:11;;;;;;;8.55;7.00;;;;;;;;;;5014380;28;20034;-71
2022/06/23 05:57:56;;;;;;;10.15;7.10;;;;;;;;;;4997676;28;20441;-70
2022/06/23 06:00:25;;;;;;;10.98;7.20;;;;;;;;;;4995285;28;20036;-72
2022/06/23 06:02:54;;;;;;;9.93;6.63;;;;;;;;;;5004259;28;20033;-72
2022/06/23 06:05:29;;;;;;;9.60;6.63;;;;;;;;;;5014226;28;20054;-71
2022/06/23 06:07:55;;;;;;;8.40;6.75;;;;;;;;;;5014869;28;20109;-71
2022/06/23 06:10:24;;;;;;;8.23;6.38;;;;;;;;;;5015184;28;20056;-70
2022/06/23 06:12:51;;;;;;;9.23;6.80;;;;;;;;;;5015977;28;20033;-70
2022/06/23 06:15:17;;;;;;;7.03;6.10;;;;;;;;;;5013283;28;20034;-71
2022/06/23 06:17:43;;;;;;;12.98;6.43;;;;;;;;;;5014377;28;20093;-70
2022/06/23 06:20:10;;;;;;;7.93;5.65;;;;;;;;;;4996096;28;20034;-71
2022/06/23 06:22:55;;;;;;;10.73;6.55;;;;;;;;;;5009305;28;20091;-72
2022/06/23 06:25:28;;;;;;;8.93;6.35;;;;;;;;;;5011731;28;20034;-71
2022/06/23 06:27:56;;;;;;;7.47;5.82;;;;;;;;;;5013780;28;20061;-70
2022/06/23 06:30:29;;;;;;;9.35;6.03;;;;;;;;;;5014120;28;20037;-71
2022/06/23 06:32:55;;;;;;;9.57;6.03;;;;;;;;;;5005178;28;20038;-71
2022/06/23 06:35:21;;;;;;;27.75;15.90;;;;;;;;;;5003423;28;20030;-72
2022/06/23 06:38:06;;;;;;;14.13;8.88;;;21.70;99.90;;;;;;4996790;28;20477;-72
2022/06/23 06:40:34;;;;;;;6.60;5.20;;;22.80;99.90;;;;;;5013845;28;20087;-72
2022/06/23 06:43:03;;;;;;;10.65;4.95;;;;;;;;;;5011852;28;20034;-70
2022/06/23 06:45:32;;;;;;;7.70;4.72;;;;;;;;;;5011953;28;20037;-71
2022/06/23 06:47:58;;;;;;;5.72;4.25;;;;;;;;;;5013747;28;20032;-71
2022/06/23 06:50:24;;;;;;;9.00;4.80;;;;;;;;;;5014014;28;20049;-71
2022/06/23 06:52:51;;;;;;;6.05;4.30;;;25.50;99.90;;;;;;5013952;28;20030;-71
2022/06/23 06:55:26;;;;;;;7.20;4.82;;;;;;;;;;5013556;28;20492;-70
2022/06/23 06:58:16;;;;;;;5.55;4.22;;;;;;;;;;5006792;28;20377;-71
2022/06/23 07:00:46;;;;;;;7.63;3.85;;;;;;;;;;4996362;28;20888;-72
2022/06/23 07:03:13;;;;;;;6.13;4.05;;;;;;;;;;5014059;28;20034;-71
2022/06/23 07:05:42;;;;;;;8.85;4.22;;;27.70;97.00;;;;;;5011325;28;20050;-71
2022/06/23 07:08:27;;;;;;;8.57;4.03;;;;;;;;;;4978116;28;20038;-72
2022/06/23 07:10:57;;;;;;;8.65;4.25;;;;;;;;;;5012663;28;20049;-72
2022/06/23 07:13:31;;;;;;;4.25;3.13;;;;;;;;;;5007427;28;20045;-72
2022/06/23 07:16:00;;;;;;;6.32;4.00;;;;;;;;;;5007474;28;20032;-72
2022/06/23 07:18:44;;;;;;;5.22;3.53;;;28.80;94.60;;;;;;5009297;28;20436;-73
2022/06/23 07:21:31;;;;;;;6.97;3.28;;;28.90;93.90;;;;;;5006278;28;20022;-73
2022/06/23 07:24:16;;;;;;;16.58;10.77;;;29.10;92.80;;;;;;5004920;28;20124;-75
2022/06/23 07:26:42;;;;;;;7.20;5.68;;;;;;;;;;5004108;28;20054;-76
2022/06/23 07:29:14;;;;;;;5.20;3.38;;;;;;;;;;5007519;28;20088;-72
2022/06/23 07:31:40;;;;;;;;;;;;;;;;;;4994245;28;20388;-72
2022/06/23 07:34:08;;;;;;;5.45;3.88;;;;;;;;;;5004600;28;19909;-72
2022/06/23 07:37:04;;;;;;;6.97;3.28;;;30.00;90.20;;;;;;4998871;28;20026;-72
2022/06/23 07:39:33;;;;;;;4.85;2.85;;;;;;;;;;4997647;28;20489;-72
2022/06/23 07:42:02;;;;;;;3.97;3.30;;;;;;;;;;5008716;28;20030;-73
2022/06/23 07:44:28;;;;;;;6.28;3.03;;;;;;;;;;5010053;28;20030;-74
2022/06/23 07:46:54;;;;;;;5.43;2.85;;;;;;;;;;5008143;28;20560;-73
2022/06/23 07:49:20;;;;;;;5.53;2.90;;;;;;;;;;4989824;28;20147;-73
2022/06/23 07:51:47;;;;;;;5.00;2.75;;;31.20;93.60;;;;;;5007899;28;20397;-72
2022/06/23 07:54:17;;;;;;;4.68;2.78;;;;;;;;;;5007292;28;20045;-72
2022/06/23 07:56:43;;;;;;;5.15;3.25;;;;;;;;;;5002192;28;20581;-73
2022/06/23 07:59:12;;;;;;;12.60;7.80;;;;;;;;;;4989400;28;20157;-73
2022/06/23 08:01:38;;;;;;;11.52;10.30;;;;;;;;;;5010735;28;20053;-75
2022/06/23 08:04:12;;;;;;;7.68;4.15;;;;;;;;;;5009233;28;20464;-76
2022/06/23 08:06:39;;;;;;;5.72;2.90;;;;;;;;;;5005716;28;20863;-75
2022/06/23 08:09:12;;;;;;;3.40;2.08;;;;;;;;;;5008547;28;20505;-73
2022/06/23 08:14:29;;;;;;;3.90;2.38;;;;;;;;;;4984695;28;20401;-72
2022/06/23 08:16:55;;;;;;;7.85;2.60;;;;;;;;;;4999191;28;20294;-72
2022/06/23 08:19:41;;;;;;;6.30;2.42;;;;;;;;;;4987346;28;20064;-72
2022/06/23 08:22:18;;;;;;;16.52;11.07;;;32.30;77.90;;;;;;5000907;28;20030;-72
2022/06/23 08:24:48;;;;;;;6.80;3.25;;;32.50;81.50;;;;;;5002799;28;20121;-73
2022/06/23 08:27:18;;;;;;;5.40;2.20;;;;;;;;;;5007960;28;20362;-73
2022/06/23 08:29:58;;;;;;;6.18;2.42;;;32.50;80.70;;;;;;5005216;28;20038;-72
2022/06/23 08:32:24;;;;;;;5.78;2.55;;;32.70;79.10;;;;;;5005558;28;20025;-72
2022/06/23 08:34:50;;;;;;;3.72;2.17;;;;;;;;;;4985546;28;20053;-72
2022/06/23 08:37:21;;;;;;;4.10;2.10;;;33.20;85.60;;;;;;5002245;28;20057;-72
2022/06/23 08:40:17;;;;;;;2.65;2.10;;;;;;;;;;5002915;28;20034;-72
2022/06/23 08:43:09;;;;;;;3.38;2.17;;;33.20;99.90;;;;;;4988846;28;20049;-72
2022/06/23 08:45:50;;;;;;;4.30;2.17;;;33.30;96.30;;;;;;4998777;28;20040;-80
2022/06/23 08:48:18;;;;;;;8.63;2.03;;;33.20;97.50;;;;;;5003074;28;20037;-77
2022/06/23 08:50:53;;;;;;;5.15;2.33;;;33.50;99.70;;;;;;5002991;28;20041;-76
2022/06/23 08:53:50;;;;;;;2.65;1.90;;;33.60;94.40;;;;;;5001524;28;20119;-76
2022/06/23 08:56:23;;;;;;;4.97;2.45;;;33.90;79.20;;;;;;4984153;28;20031;-77
2022/06/23 08:58:59;;;;;;;5.43;2.20;;;;;;;;;;5001204;28;20457;-77
2022/06/23 09:01:32;;;;;;;5.95;1.90;;;;;;;;;;5000440;28;20022;-74
2022/06/23 09:04:25;;;;;;;4.57;2.00;;;34.00;74.20;;;;;;4986392;28;20035;-74
2022/06/23 09:07:00;;;;;;;3.63;1.52;;;;;;;;;;4962606;28;20077;-75
2022/06/23 09:09:29;;;;;;;4.15;2.05;;;;;;;;;;4982239;28;20164;-75
2022/06/23 09:12:10;;;;;;;4.93;2.25;;;34.30;72.80;;;;;;4978246;28;20389;-76
2022/06/23 09:14:54;;;;;;;5.97;1.98;;;;;;;;;;4979803;28;20022;-75
2022/06/23 09:17:20;;;;;;;2.25;1.60;;;;;;;;;;4979202;28;20038;-76
2022/06/23 09:20:02;;;;;;;4.97;2.20;;;;;;;;;;4978355;28;20022;-77
2022/06/23 09:22:31;;;;;;;4.05;2.13;;;;;;;;;;4975930;28;20043;-77
2022/06/23 09:24:57;;;;;;;3.38;1.60;;;;;;;;;;4985845;28;20528;-76
2022/06/23 09:27:23;;;;;;;2.35;1.20;;;;;;;;;;4979402;28;20141;-75
2022/06/23 09:30:01;;;;;;;10.32;1.67;;;;;;;;;;4982387;28;20027;-76
2022/06/23 09:32:39;;;;;;;2.05;1.10;;;;;;;;;;4985388;28;20035;-77
2022/06/23 09:35:38;;;;;;;4.40;1.10;;;34.70;69.80;;;;;;4980307;28;20033;-76
2022/06/23 09:38:23;;;;;;;3.17;1.40;;;;;;;;;;4983767;28;20131;-77
2022/06/23 09:41:05;;;;;;;3.90;1.23;;;;;;;;;;4979424;28;20033;-76
2022/06/23 09:43:39;;;;;;;14.55;7.85;;;34.80;66.60;;;;;;4988728;28;20873;-77
2022/06/23 09:46:38;;;;;;;5.97;4.10;;;34.90;71.00;;;;;;4987893;28;20126;-77
2022/06/23 09:49:22;;;;;;;3.55;1.23;;;34.80;67.20;;;;;;4989051;28;20038;-71
2022/06/23 09:52:00;;;;;;;2.67;1.30;;;34.50;83.80;;;;;;4983717;28;20035;-71
2022/06/23 09:54:54;;;;;;;5.40;1.25;;;34.90;71.70;;;;;;4982034;28;20050;-72
2022/06/23 09:57:42;;;;;;;4.72;1.33;;;34.90;66.70;;;;;;4964948;28;20038;-72
2022/06/23 10:00:17;;;;;;;3.67;1.08;;;35.00;71.40;;;;;;4989454;28;20039;-72
2022/06/23 10:03:06;;;;;;;4.70;1.35;;;35.30;68.70;;;;;;4989886;28;20034;-73
2022/06/23 10:05:40;;;;;;;4.50;1.30;;;35.20;62.40;;;;;;5000753;28;21030;-72
2022/06/23 10:08:06;;;;;;;2.97;1.40;;;;;;;;;;5004895;28;20121;-72
2022/06/23 10:10:52;;;;;;;2.15;1.00;;;;;;;;;;5008225;28;20033;-72
2022/06/23 10:13:29;;;;;;;3.60;1.13;;;35.30;62.10;;;;;;5010119;28;20026;-72
2022/06/23 10:16:17;;;;;;;6.65;1.30;;;35.40;62.00;;;;;;5007847;28;20387;-71
2022/06/23 10:18:46;;;;;;;3.03;1.63;;;;;;;;;;4992486;28;20030;-74
2022/06/23 10:21:40;;;;;;;3.15;1.30;;;35.60;66.70;;;;;;4997025;28;20044;-73
2022/06/23 10:24:21;;;;;;;2.65;1.10;;;;;;;;;;5012382;28;20409;-73
2022/06/23 10:27:06;;;;;;;5.75;1.50;;;;;;;;;;5011829;28;20037;-73
2022/06/23 10:29:37;;;;;;;2.97;1.17;;;;;;;;;;5008526;28;20034;-74
2022/06/23 10:32:06;;;;;;;3.55;1.48;;;;;;;;;;5014179;28;20046;-74
2022/06/23 10:34:41;;;;;;;9.82;1.45;;;;;;;;;;5013235;28;20026;-73
2022/06/23 10:37:28;;;;;;;7.43;1.35;;;;;;;;;;5008086;28;20057;-73
2022/06/23 10:40:00;;;;;;;2.03;0.95;;;;;;;;;;5007993;28;20034;-71
2022/06/23 10:42:58;;;;;;;8.45;1.20;;;36.10;65.80;;;;;;5014185;28;20026;-72
2022/06/23 10:45:47;;;;;;;7.22;1.42;;;36.50;65.60;;;;;;5006330;28;20367;-71
2022/06/23 10:48:13;;;;;;;5.10;1.70;;;;;;;;;;5009614;28;20420;-72
2022/06/23 10:50:39;;;;;;;1.85;0.90;;;;;;;;;;5011908;28;20044;-72
2022/06/23 10:53:23;;;;;;;2.72;1.50;;;;;;;;;;5002339;28;20030;-72
2022/06/23 10:55:52;;;;;;;2.53;1.02;;;;;;;;;;5011636;28;20026;-72
2022/06/23 10:58:55;;;;;;;3.08;1.20;;;35.80;59.20;;;;;;5013694;28;20095;-72
2022/06/23 11:01:48;;;;;;;2.38;1.05;;;35.50;65.10;;;;;;4999539;28;20030;-72
2022/06/23 11:04:24;;;;;;;3.33;1.63;;;;;;;;;;5005569;28;20504;-72
2022/06/23 11:06:59;;;;;;;2.30;0.98;;;;;;;;;;5011977;28;20025;-72
2022/06/23 11:09:49;;;;;;;7.35;1.52;;;;;;;;;;5013731;28;20378;-72
2022/06/23 11:12:40;;;;;;;2.72;1.13;;;35.30;78.50;;;;;;5012259;28;20038;-71
2022/06/23 11:15:09;;;;;;;2.17;1.30;;;;;;;;;;5008343;28;20022;-71
2022/06/23 11:17:54;;;;;;;2.60;1.42;;;;;;;;;;5004414;28;20548;-71
2022/06/23 11:20:48;;;;;;;2.60;0.90;;;35.30;63.80;;;;;;5010441;28;20110;-72
2022/06/23 11:23:23;;;;;;;5.90;1.33;;;;;;;;;;5012797;28;20034;-72
2022/06/23 11:26:06;;;;;;;6.53;1.42;;;34.90;62.70;;;;;;5013255;28;20033;-72
2022/06/23 11:28:45;;;;;;;3.55;1.20;;;;;;;;;;5011655;28;20367;-72
2022/06/23 11:31:24;;;;;;;6.03;1.17;;;35.30;67.40;;;;;;5007886;28;20068;-72
2022/06/23 11:34:11;;;;;;;2.50;1.13;;;;;;;;;;4996061;28;20062;-72
2022/06/23 11:37:06;;;;;;;6.20;1.30;;;35.00;63.80;;;;;;5006856;28;20037;-72
2022/06/23 11:39:59;;;;;;;2.83;1.33;;;34.90;64.00;;;;;;4984471;28;20040;-72
2022/06/23 11:42:31;;;;;;;4.25;1.33;;;;;;;;;;5012394;28;20034;-72
2022/06/23 11:45:16;;;;;;;5.30;1.70;;;;;;;;;;4997604;28;20118;-72
2022/06/23 11:48:15;;;;;;;6.18;1.33;;;34.90;69.00;;;;;;5007319;28;20100;-72
2022/06/23 11:51:12;;;;;;;6.80;1.40;;;35.00;68.90;;;;;;5008661;28;20038;-72
2022/06/23 11:53:55;;;;;;;3.35;1.20;;;35.00;68.60;;;;;;5013068;28;20026;-72
2022/06/23 11:56:40;;;;;;;5.97;1.70;;;35.10;64.30;;;;;;5010552;28;20030;-71
2022/06/23 11:59:08;;;;;;;4.53;1.20;;;;;;;;;;5012827;28;20026;-72
2022/06/23 12:01:34;;;;;;;5.50;1.55;;;35.40;80.60;;;;;;5009070;28;20030;-71
2022/06/23 12:04:09;;;;;;;3.58;1.63;;;35.20;80.00;;;;;;4994792;28;20033;-73
2022/06/23 12:07:10;;;;;;;3.97;1.50;;;35.30;64.80;;;;;;4993484;28;20038;-72
2022/06/23 12:09:43;;;;;;;3.17;1.27;;;;;;;;;;4948162;28;20104;-72
2022/06/23 12:12:09;;;;;;;4.05;1.45;;;;;;;;;;4990022;28;20022;-72
2022/06/23 12:14:36;;;;;;;5.40;1.80;;;35.40;67.40;;;;;;4975045;28;20034;-71
2022/06/23 12:17:24;;;;;;;4.70;1.40;;;35.50;64.40;;;;;;4992731;28;20030;-72
2022/06/23 12:20:04;;;;;;;5.78;1.55;;;;;;;;;;4992366;28;20026;-72
2022/06/23 12:22:39;;;;;;;5.38;1.23;;;;;;;;;;4992139;28;20034;-72
2022/06/23 12:25:08;;;;;;;4.75;1.48;;;35.10;63.30;;;;;;4990375;28;20533;-72
2022/06/23 12:27:43;;;;;;;4.72;1.83;;;34.70;67.80;;;;;;4992215;28;20149;-72
2022/06/23 12:30:13;;;;;;;3.15;1.60;;;;;;;;;;4991389;28;20054;-72
2022/06/23 12:32:42;;;;;;;5.25;1.40;;;;;;;;;;4992241;28;20038;-71
2022/06/23 12:35:08;;;;;;;3.38;1.48;;;35.20;80.60;;;;;;4979548;28;20093;-72
2022/06/23 12:38:06;;;;;;;4.68;2.33;;;35.00;68.30;;;;;;4991320;28;20478;-71
2022/06/23 12:40:51;;;;;;;3.03;1.30;;;;;;;;;;4974995;28;20023;-71
2022/06/23 12:43:27;;;;;;;5.10;1.40;;;;;;;;;;4984101;28;20026;-71
2022/06/23 12:45:56;;;;;;;4.70;1.50;;;;;;;;;;4991687;28;20030;-71
2022/06/23 12:48:31;;;;;;;4.00;1.40;;;;;;;;;;4985033;28;20034;-72
2022/06/23 12:51:09;;;;;;;4.43;1.40;;;;;;;;;;4971757;28;20182;-71
2022/06/23 12:53:35;;;;;;;4.07;1.48;;;;;;;;;;4989542;28;20520;-71
2022/06/23 12:56:14;;;;;;;6.25;1.42;;;;;;;;;;4979338;28;20058;-70
2022/06/23 12:59:02;;;;;;;3.88;1.65;;;;;;;;;;4964485;28;20034;-71
2022/06/23 13:02:02;;;;;;;6.63;1.00;;;35.70;59.90;;;;;;4986728;28;20367;-71
2022/06/23 13:04:49;;;;;;;4.73;1.23;;;;;;;;;;4931212;28;20044;-71
2022/06/23 13:07:18;;;;;;;3.40;0.98;;;;;;;;;;5003069;28;20030;-71
2022/06/23 13:09:52;;;;;;;6.60;1.25;;;;;;;;;;5010785;28;20030;-71
2022/06/23 13:12:36;;;;;;;3.40;1.35;;;35.70;61.20;;;;;;5009583;28;20073;-72
2022/06/23 13:15:11;;;;;;;4.78;1.05;;;35.70;75.90;;;;;;5002572;28;20101;-72
2022/06/23 13:18:08;;;;;;;3.67;1.30;;;35.60;63.20;;;;;;5004327;28;20478;-72
2022/06/23 13:20:34;;;;;;;5.25;1.80;;;;;;;;;;4989201;28;20042;-72
2022/06/23 13:23:15;;;;;;;3.53;1.27;;;;;;;;;;5003810;28;20040;-72
2022/06/23 13:25:50;;;;;;;3.33;1.35;;;35.90;62.60;;;;;;5009871;28;20486;-72
2022/06/23 13:28:39;;;;;;;5.97;1.30;;;36.00;62.90;;;;;;5008794;28;20040;-71
2022/06/23 13:31:31;;;;;;;4.55;1.40;;;36.00;63.10;;;;;;5011243;28;20026;-71
2022/06/23 13:34:13;;;;;;;3.05;1.25;;;;;;;;;;5009399;28;20041;-72
2022/06/23 13:36:52;;;;;;;5.45;1.33;;;36.00;62.20;;;;;;5009659;28;20038;-71
2022/06/23 13:39:18;;;;;;;4.18;1.17;;;;;;;;;;5009570;28;20052;-72
2022/06/23 13:41:58;;;;;;;3.03;1.10;;;;;;;;;;5006266;28;20093;-72
2022/06/23 13:44:30;;;;;;;1.02;0.93;;;;;;;;;;5002912;28;20034;-72
2022/06/23 13:46:59;;;;;;;4.15;0.90;;;;;;;;;;5008047;28;20026;-72
2022/06/23 13:49:29;;;;;;;5.75;1.35;;;;;;;;;;5011480;28;20042;-72
2022/06/23 13:52:19;;;;;;;3.20;1.27;;;35.80;61.70;;;;;;5008266;28;20122;-72
2022/06/23 13:54:52;;;;;;;4.53;1.45;;;35.40;60.40;;;;;;5003826;28;20045;-72
2022/06/23 13:57:28;;;;;;;10.10;1.40;;;;;;;;;;5006206;28;20034;-71
2022/06/23 14:00:00;;;;;;;6.68;1.20;;;;;;;;;;5011870;28;20041;-72
2022/06/23 14:02:27;;;;;;;5.20;1.35;;;;;;;;;;5008326;28;20106;-71
2022/06/23 14:05:18;;;;;;;3.20;1.35;;;35.40;61.70;;;;;;5013522;28;20488;-72
2022/06/23 14:07:54;;;;;;;9.43;1.13;;;;;;;;;;4982525;28;20045;-72
2022/06/23 14:10:29;;;;;;;2.90;1.10;;;;;;;;;;5013767;28;20315;-71
2022/06/23 14:13:09;;;;;;;2.65;1.10;;;35.70;62.20;;;;;;5010306;28;20513;-72
2022/06/23 14:15:40;;;;;;;2.40;0.95;;;;;;;;;;5012779;28;20030;-72
2022/06/23 14:18:09;;;;;;;4.13;1.38;;;;;;;;;;5011585;28;20381;-71
2022/06/23 14:20:42;;;;;;;7.10;1.20;;;35.70;61.20;;;;;;5008299;28;20038;-72
2022/06/23 14:23:14;;;;;;;5.10;1.23;;;;;;;;;;4996439;28;20033;-72
2022/06/23 14:26:16;;;;;;;1.75;1.05;;;;;;;;;;5011740;28;20033;-72
2022/06/23 14:28:46;;;;;;;2.80;1.10;;;;;;;;;;4972550;28;20117;-71
2022/06/23 14:31:21;;;;;;;7.20;1.17;;;;;;;;;;5009259;28;20031;-72
2022/06/23 14:34:01;;;;;;;5.03;1.30;;;;;;;;;;5013590;28;20034;-72
2022/06/23 14:36:36;;;;;;;6.82;1.60;;;;;;;;;;5006122;28;20034;-71
2022/06/23 14:39:10;;;;;;;9.57;1.50;;;;;;;;;;5014458;28;20112;-72
2022/06/23 14:41:50;;;;;;;3.78;1.20;;;;;;;;;;5009174;28;20033;-71
2022/06/23 14:44:40;;;;;;;4.22;0.93;;;35.40;62.20;;;;;;5013272;28;20797;-71
2022/06/23 14:47:32;;;;;;;2.25;1.10;;;35.50;61.50;;;;;;5005924;28;20101;-72
2022/06/23 14:50:09;;;;;;;7.55;1.20;;;35.70;65.70;;;;;;5005620;28;20050;-71
2022/06/23 14:52:35;;;;;;;2.55;0.88;;;;;;;;;;4990714;28;20022;-71
2022/06/23 14:55:22;;;;;;;1.90;1.10;;;35.90;62.00;;;;;;5009537;28;20029;-71
2022/06/23 14:58:20;;;;;;;3.65;1.17;;;35.90;57.60;;;;;;5015850;28;20036;-72